createdAt,value
2023-03-02T00:04:22.561Z,4.60
2023-03-02T00:10:25.571Z,4.60
2023-03-02T00:16:27.904Z,4.60
2023-03-02T00:22:30.122Z,4.50
2023-03-02T00:28:32.886Z,4.40
2023-03-02T00:34:35.145Z,4.40
2023-03-02T00:40:37.347Z,4.30
2023-03-02T00:46:39.390Z,4.20
2023-03-02T00:52:41.625Z,4.20
2023-03-02T00:58:43.913Z,4.20
2023-03-02T01:04:47.192Z,4.10
2023-03-02T01:10:50.125Z,4.00
2023-03-02T01:16:52.485Z,3.90
2023-03-02T01:22:54.517Z,3.90
2023-03-02T01:28:56.728Z,3.90
2023-03-02T01:34:58.918Z,3.90
2023-03-02T01:41:01.141Z,3.80
2023-03-02T01:47:06.778Z,3.80
2023-03-02T01:53:09.517Z,3.80
2023-03-02T01:59:16.376Z,3.80
2023-03-02T02:05:23.887Z,3.80
2023-03-02T02:11:26.443Z,3.80
2023-03-02T02:17:30.543Z,3.70
2023-03-02T02:23:49.607Z,3.60
2023-03-02T02:29:53.337Z,3.50
2023-03-02T02:36:15.166Z,3.40
2023-03-02T02:42:37.486Z,3.50
2023-03-02T02:48:40.132Z,3.40
2023-03-02T02:54:45.680Z,3.40
2023-03-02T03:00:47.986Z,3.40
2023-03-02T03:07:05.254Z,3.30
2023-03-02T03:13:11.736Z,3.20
2023-03-02T03:19:20.607Z,3.20
2023-03-02T03:25:26.284Z,3.20
2023-03-02T03:31:30.287Z,3.20
2023-03-02T03:37:33.240Z,3.20
2023-03-02T03:43:35.574Z,3.20
2023-03-02T03:49:38.501Z,3.10
2023-03-02T03:55:42.170Z,3.10
2023-03-02T04:01:51.688Z,3.00
2023-03-02T04:07:54.650Z,3.00
2023-03-02T04:13:58.205Z,2.90
2023-03-02T04:20:01.101Z,2.80
2023-03-02T04:26:05.401Z,2.80
2023-03-02T04:32:08.965Z,2.60
2023-03-02T04:38:13.838Z,2.50
2023-03-02T04:44:16.431Z,2.50
2023-03-02T04:50:18.563Z,2.60
2023-03-02T04:56:21.491Z,2.60
2023-03-02T05:02:23.665Z,2.60
2023-03-02T05:08:26.074Z,2.60
2023-03-02T05:14:29.184Z,2.50
2023-03-02T05:20:31.931Z,2.50
2023-03-02T05:26:34.447Z,2.60
2023-03-02T05:32:36.757Z,2.50
2023-03-02T05:38:39.018Z,2.60
2023-03-02T05:44:41.340Z,2.50
2023-03-02T05:50:43.498Z,2.60
2023-03-02T05:56:45.550Z,2.60
2023-03-02T06:02:48.080Z,2.60
2023-03-02T06:08:50.315Z,2.80
2023-03-02T06:14:52.420Z,2.90
2023-03-02T06:20:54.413Z,3.00
2023-03-02T06:26:56.609Z,3.20
2023-03-02T06:33:00.126Z,3.50
2023-03-02T06:39:02.134Z,3.80
2023-03-02T06:45:05.602Z,3.90
2023-03-02T06:51:08.221Z,3.80
2023-03-02T06:57:10.425Z,4.00
2023-03-02T07:03:12.602Z,4.00
2023-03-02T07:09:14.786Z,4.00
2023-03-02T07:15:17.864Z,4.30
2023-03-02T07:21:23.672Z,4.60
2023-03-02T07:27:26.139Z,5.30
2023-03-02T07:33:28.327Z,5.80
2023-03-02T07:39:30.801Z,6.20
2023-03-02T07:45:32.834Z,6.30
2023-03-02T07:51:35.467Z,7.00
2023-03-02T07:57:38.234Z,8.20
2023-03-02T08:03:40.443Z,8.20
2023-03-02T08:09:42.816Z,7.90
2023-03-02T08:15:45.158Z,7.50
2023-03-02T08:21:47.664Z,7.60
2023-03-02T08:27:49.892Z,7.80
2023-03-02T08:33:52.268Z,7.80
2023-03-02T08:39:54.816Z,7.60
2023-03-02T08:45:58.421Z,7.50
2023-03-02T08:52:01.085Z,7.60
2023-03-02T08:58:04.810Z,7.40
2023-03-02T09:04:08.664Z,7.60
2023-03-02T09:10:11.501Z,7.90
2023-03-02T09:16:13.889Z,7.30
2023-03-02T09:22:16.421Z,7.80
2023-03-02T09:28:18.926Z,8.20
2023-03-02T09:34:21.822Z,8.40
2023-03-02T09:40:27.254Z,7.90
2023-03-02T09:46:35.522Z,7.60
2023-03-02T09:52:47.082Z,7.50
2023-03-02T09:58:57.110Z,7.50
2023-03-02T10:05:02.635Z,7.60
2023-03-02T10:11:29.700Z,7.40
2023-03-02T10:17:41.142Z,7.30
2023-03-02T10:23:49.424Z,7.60
2023-03-02T10:30:17.980Z,7.60
2023-03-02T10:36:24.950Z,7.50
2023-03-02T10:42:38.319Z,7.70
2023-03-02T10:48:51.509Z,7.50
2023-03-02T10:55:06.978Z,7.60
2023-03-02T11:01:18.552Z,7.80
2023-03-02T11:07:23.012Z,7.80
2023-03-02T11:13:28.995Z,8.00
2023-03-02T11:19:38.106Z,7.60
2023-03-02T11:25:46.926Z,7.60
2023-03-02T11:31:56.240Z,7.70
2023-03-02T11:38:16.255Z,7.90
2023-03-02T11:44:20.929Z,8.20
2023-03-02T11:50:23.231Z,8.00
2023-03-02T11:56:27.126Z,8.00
2023-03-02T12:02:29.303Z,7.90
2023-03-02T12:08:36.387Z,7.30
2023-03-02T12:14:40.845Z,7.20
2023-03-02T12:20:43.729Z,7.20
2023-03-02T12:26:46.009Z,7.00
2023-03-02T12:33:01.905Z,7.00
2023-03-02T12:39:13.123Z,7.00
2023-03-02T12:45:43.560Z,7.00
2023-03-02T12:51:57.677Z,6.80
2023-03-02T12:58:02.227Z,6.70
2023-03-02T13:04:04.850Z,6.60
2023-03-02T13:10:21.662Z,6.60
2023-03-02T13:16:26.586Z,6.50
2023-03-02T13:22:29.627Z,6.40
2023-03-02T13:28:34.126Z,6.50
2023-03-02T13:34:36.841Z,6.40
2023-03-02T13:40:40.921Z,6.20
2023-03-02T13:46:43.251Z,6.20
2023-03-02T13:52:45.651Z,6.20
2023-03-02T13:58:47.988Z,6.30
2023-03-02T14:04:50.662Z,6.30
2023-03-02T14:10:59.784Z,6.20
2023-03-02T14:17:02.240Z,6.30
2023-03-02T14:23:06.982Z,6.40
2023-03-02T14:29:28.402Z,6.30
2023-03-02T14:35:30.969Z,6.20
2023-03-02T14:41:43.948Z,6.10
2023-03-02T14:47:53.758Z,6.30
2023-03-02T14:53:58.794Z,6.20
2023-03-02T15:00:01.231Z,6.10
2023-03-02T15:06:03.720Z,6.20
2023-03-02T15:12:07.837Z,6.10
2023-03-02T15:18:12.566Z,6.00
2023-03-02T15:24:14.973Z,6.00
2023-03-02T15:30:18.055Z,6.00
2023-03-02T15:36:21.084Z,5.80
2023-03-02T15:42:23.851Z,5.80
2023-03-02T15:48:26.311Z,5.60
2023-03-02T15:54:29.084Z,5.50
2023-03-02T16:00:31.735Z,5.50
2023-03-02T16:06:33.996Z,5.50
2023-03-02T16:12:36.139Z,5.40
2023-03-02T16:18:38.384Z,5.40
2023-03-02T16:24:41.906Z,5.40
2023-03-02T16:30:44.595Z,5.30
2023-03-02T16:36:47.032Z,5.40
2023-03-02T16:42:52.869Z,5.40
2023-03-02T16:48:55.645Z,5.40
2023-03-02T16:54:57.759Z,5.40
2023-03-02T17:01:00.585Z,5.40
2023-03-02T17:07:06.748Z,5.50
2023-03-02T17:13:09.236Z,5.50
2023-03-02T17:19:11.536Z,5.50
2023-03-02T17:25:14.469Z,5.60
2023-03-02T17:31:16.742Z,5.60
2023-03-02T17:37:19.173Z,5.60
2023-03-02T17:43:21.371Z,5.60
2023-03-02T17:49:23.617Z,5.60
2023-03-02T17:55:26.159Z,5.50
2023-03-02T18:01:29.093Z,5.60
2023-03-02T18:07:31.687Z,5.70
2023-03-02T18:13:34.073Z,5.70
2023-03-02T18:19:37.261Z,5.70
2023-03-02T18:25:39.807Z,5.60
2023-03-02T18:31:42.542Z,5.60
2023-03-02T18:37:44.808Z,5.60
2023-03-02T18:43:47.391Z,5.60
2023-03-02T18:49:50.027Z,5.70
2023-03-02T18:55:55.188Z,5.70
2023-03-02T19:01:57.989Z,5.70
2023-03-02T19:08:00.653Z,5.70
2023-03-02T19:14:03.045Z,5.80
2023-03-02T19:20:06.079Z,5.70
2023-03-02T19:26:09.363Z,5.60
2023-03-02T19:32:15.063Z,5.70
2023-03-02T19:38:18.493Z,5.60
2023-03-02T19:44:21.000Z,5.50
2023-03-02T19:50:23.784Z,5.60
2023-03-02T19:56:33.210Z,5.60
2023-03-02T20:02:37.433Z,5.70
2023-03-02T20:08:40.311Z,5.60
2023-03-02T20:14:44.753Z,5.60
2023-03-02T20:20:47.640Z,5.50
2023-03-02T20:26:50.619Z,5.60
2023-03-02T20:32:52.693Z,5.50
2023-03-02T20:39:13.890Z,5.40
2023-03-02T20:45:16.434Z,5.40
2023-03-02T20:51:19.949Z,5.40
2023-03-02T20:57:24.269Z,5.40
2023-03-02T21:03:27.274Z,5.20
2023-03-02T21:09:29.577Z,5.10
2023-03-02T21:15:32.468Z,5.10
2023-03-02T21:21:41.398Z,5.10
2023-03-02T21:27:45.573Z,5.10
2023-03-02T21:33:50.105Z,5.10
2023-03-02T21:39:52.429Z,5.10
2023-03-02T21:45:55.619Z,5.00
2023-03-02T21:51:58.339Z,5.00
2023-03-02T21:58:01.030Z,4.90
2023-03-02T22:04:03.062Z,4.90
2023-03-02T22:10:05.867Z,4.90
2023-03-02T22:16:15.059Z,4.90
2023-03-02T22:22:22.388Z,4.70
2023-03-02T22:28:27.491Z,4.60
2023-03-02T22:34:31.426Z,4.60
2023-03-02T22:40:35.473Z,4.50
2023-03-02T22:46:38.055Z,4.60
2023-03-02T22:52:44.401Z,4.50
2023-03-02T22:58:51.890Z,4.50
2023-03-02T23:04:54.125Z,4.50
2023-03-02T23:10:58.817Z,4.50
2023-03-02T23:17:27.404Z,4.50
2023-03-02T23:23:29.811Z,4.40
2023-03-02T23:29:32.477Z,4.30
2023-03-02T23:35:34.849Z,4.30
2023-03-02T23:41:38.905Z,4.20
2023-03-02T23:47:41.392Z,4.10
2023-03-02T23:53:44.431Z,4.00
2023-03-02T23:59:46.897Z,4.00
